sensor_id;sensor_type;location;lat;lon;timestamp;pressure;altitude;pressure_sealevel;temperature;humidity
6393;BME280;3229;42.674;23.282;2022-08-04T00:00:21;94821.97;;;23.56;61.97
6393;BME280;3229;42.674;23.282;2022-08-04T00:03:01;94826.63;;;23.53;62.37
6393;BME280;3229;42.674;23.282;2022-08-04T00:05:35;94823.91;;;23.42;62.48
6393;BME280;3229;42.674;23.282;2022-08-04T00:08:10;94806.47;;;23.36;62.55
6393;BME280;3229;42.674;23.282;2022-08-04T00:10:44;94827.88;;;23.44;62.78
6393;BME280;3229;42.674;23.282;2022-08-04T00:13:16;94828.09;;;23.43;62.95
6393;BME280;3229;42.674;23.282;2022-08-04T00:15:51;94810.56;;;23.32;62.84
6393;BME280;3229;42.674;23.282;2022-08-04T00:18:21;94812.72;;;23.35;63.16
6393;BME280;3229;42.674;23.282;2022-08-04T00:20:50;94809.16;;;23.29;63.52
6393;BME280;3229;42.674;23.282;2022-08-04T00:23:21;94818.81;;;23.28;63.75
6393;BME280;3229;42.674;23.282;2022-08-04T00:25:49;94812.19;;;23.26;63.95
6393;BME280;3229;42.674;23.282;2022-08-04T00:28:18;94813.19;;;23.25;63.86
6393;BME280;3229;42.674;23.282;2022-08-04T00:30:45;94810.03;;;23.23;63.99
6393;BME280;3229;42.674;23.282;2022-08-04T00:33:17;94761.88;;;22.94;64.04
6393;BME280;3229;42.674;23.282;2022-08-04T00:35:45;94808.63;;;23.20;64.00
6393;BME280;3229;42.674;23.282;2022-08-04T00:38:14;94812.25;;;23.19;64.03
6393;BME280;3229;42.674;23.282;2022-08-04T00:40:48;94808.88;;;23.12;63.96
6393;BME280;3229;42.674;23.282;2022-08-04T00:43:20;94817.50;;;23.13;63.87
6393;BME280;3229;42.674;23.282;2022-08-04T00:46:27;94820.53;;;23.10;63.47
6393;BME280;3229;42.674;23.282;2022-08-04T00:49:30;94817.94;;;23.10;63.43
6393;BME280;3229;42.674;23.282;2022-08-04T00:52:06;94821.97;;;23.06;63.39
6393;BME280;3229;42.674;23.282;2022-08-04T00:54:54;94820.81;;;23.01;63.76
6393;BME280;3229;42.674;23.282;2022-08-04T00:57:29;94819.41;;;22.99;63.70
6393;BME280;3229;42.674;23.282;2022-08-04T01:00:05;94826.03;;;23.01;63.61
6393;BME280;3229;42.674;23.282;2022-08-04T01:02:41;94826.22;;;23.00;63.69
6393;BME280;3229;42.674;23.282;2022-08-04T01:05:19;94770.91;;;22.60;63.69
6393;BME280;3229;42.674;23.282;2022-08-04T01:08:00;94822.66;;;22.94;63.69
6393;BME280;3229;42.674;23.282;2022-08-04T01:10:39;94830.91;;;22.91;63.95
6393;BME280;3229;42.674;23.282;2022-08-04T01:16:09;94826.28;;;22.87;63.97
6393;BME280;3229;42.674;23.282;2022-08-04T01:18:45;94816.16;;;22.72;64.03
6393;BME280;3229;42.674;23.282;2022-08-04T01:21:42;94842.78;;;22.81;64.40
6393;BME280;3229;42.674;23.282;2022-08-04T01:24:37;94840.59;;;22.77;64.51
6393;BME280;3229;42.674;23.282;2022-08-04T01:27:17;94839.19;;;22.75;64.48
6393;BME280;3229;42.674;23.282;2022-08-04T01:29:55;94842.00;;;22.73;64.67
6393;BME280;3229;42.674;23.282;2022-08-04T01:32:30;94839.03;;;22.70;64.79
6393;BME280;3229;42.674;23.282;2022-08-04T01:35:04;94833.63;;;22.65;65.17
6393;BME280;3229;42.674;23.282;2022-08-04T01:37:47;94825.59;;;22.66;65.21
6393;BME280;3229;42.674;23.282;2022-08-04T01:40:15;94828.44;;;22.65;64.99
6393;BME280;3229;42.674;23.282;2022-08-04T01:42:43;94822.81;;;22.61;65.60
6393;BME280;3229;42.674;23.282;2022-08-04T01:45:12;94818.63;;;22.60;65.54
6393;BME280;3229;42.674;23.282;2022-08-04T01:47:42;94809.03;;;22.54;65.46
6393;BME280;3229;42.674;23.282;2022-08-04T01:50:14;94818.22;;;22.57;65.52
6393;BME280;3229;42.674;23.282;2022-08-04T01:52:42;94769.34;;;22.14;64.88
6393;BME280;3229;42.674;23.282;2022-08-04T01:55:12;94824.94;;;22.39;65.03
6393;BME280;3229;42.674;23.282;2022-08-04T01:57:42;94840.97;;;22.43;65.13
6393;BME280;3229;42.674;23.282;2022-08-04T02:00:10;94805.16;;;22.25;64.83
6393;BME280;3229;42.674;23.282;2022-08-04T02:02:38;94814.97;;;22.29;65.26
6393;BME280;3229;42.674;23.282;2022-08-04T02:05:08;94817.97;;;22.33;65.29
6393;BME280;3229;42.674;23.282;2022-08-04T02:08:00;94826.75;;;22.39;65.16
6393;BME280;3229;42.674;23.282;2022-08-04T02:10:36;94827.38;;;22.34;65.45
6393;BME280;3229;42.674;23.282;2022-08-04T02:13:23;94811.75;;;22.27;65.78
6393;BME280;3229;42.674;23.282;2022-08-04T02:15:57;94825.97;;;22.32;65.57
6393;BME280;3229;42.674;23.282;2022-08-04T02:18:30;94827.38;;;22.27;65.56
6393;BME280;3229;42.674;23.282;2022-08-04T02:21:00;94825.16;;;22.31;65.73
6393;BME280;3229;42.674;23.282;2022-08-04T02:23:34;94820.19;;;22.29;65.71
6393;BME280;3229;42.674;23.282;2022-08-04T02:26:03;94821.38;;;22.27;65.79
6393;BME280;3229;42.674;23.282;2022-08-04T02:28:37;94814.56;;;22.26;66.08
6393;BME280;3229;42.674;23.282;2022-08-04T02:31:24;94793.00;;;22.12;66.19
6393;BME280;3229;42.674;23.282;2022-08-04T02:34:00;94809.78;;;22.10;67.31
6393;BME280;3229;42.674;23.282;2022-08-04T02:36:35;94804.63;;;22.03;67.03
6393;BME280;3229;42.674;23.282;2022-08-04T02:39:04;94817.66;;;22.03;67.39
6393;BME280;3229;42.674;23.282;2022-08-04T02:41:32;94813.22;;;22.03;67.51
6393;BME280;3229;42.674;23.282;2022-08-04T02:44:01;94822.63;;;22.04;67.48
6393;BME280;3229;42.674;23.282;2022-08-04T02:46:29;94813.84;;;21.92;67.88
6393;BME280;3229;42.674;23.282;2022-08-04T02:49:00;94823.03;;;22.01;68.27
6393;BME280;3229;42.674;23.282;2022-08-04T02:51:29;94807.44;;;21.88;68.40
6393;BME280;3229;42.674;23.282;2022-08-04T02:53:58;94821.66;;;21.92;68.32
6393;BME280;3229;42.674;23.282;2022-08-04T02:56:28;94829.47;;;21.99;68.38
6393;BME280;3229;42.674;23.282;2022-08-04T02:58:58;94815.66;;;21.92;68.24
6393;BME280;3229;42.674;23.282;2022-08-04T03:01:26;94830.28;;;21.99;68.29
6393;BME280;3229;42.674;23.282;2022-08-04T03:04:13;94833.28;;;21.96;68.77
6393;BME280;3229;42.674;23.282;2022-08-04T03:13:02;94804.31;;;21.73;67.94
6393;BME280;3229;42.674;23.282;2022-08-04T03:16:08;94810.88;;;21.75;68.24
6393;BME280;3229;42.674;23.282;2022-08-04T03:22:31;94836.56;;;21.72;67.75
6393;BME280;3229;42.674;23.282;2022-08-04T03:25:37;94832.56;;;21.56;68.04
6393;BME280;3229;42.674;23.282;2022-08-04T03:28:29;94766.13;;;21.07;68.26
6393;BME280;3229;42.674;23.282;2022-08-04T03:31:21;94826.38;;;21.50;68.29
6393;BME280;3229;42.674;23.282;2022-08-04T03:34:03;94824.75;;;21.49;68.41
6393;BME280;3229;42.674;23.282;2022-08-04T03:37:02;94828.56;;;21.47;68.72
6393;BME280;3229;42.674;23.282;2022-08-04T03:43:11;94812.16;;;21.40;68.56
6393;BME280;3229;42.674;23.282;2022-08-04T03:46:10;94825.56;;;21.43;68.56
6393;BME280;3229;42.674;23.282;2022-08-04T03:48:57;94831.56;;;21.50;68.24
6393;BME280;3229;42.674;23.282;2022-08-04T03:51:36;94801.13;;;21.24;68.55
6393;BME280;3229;42.674;23.282;2022-08-04T03:57:46;94817.13;;;21.01;69.48
6393;BME280;3229;42.674;23.282;2022-08-04T04:00:25;94837.53;;;21.04;70.11
6393;BME280;3229;42.674;23.282;2022-08-04T04:03:22;94812.91;;;21.00;69.72
6393;BME280;3229;42.674;23.282;2022-08-04T04:06:40;94820.91;;;21.05;70.16
6393;BME280;3229;42.674;23.282;2022-08-04T04:09:26;94823.13;;;21.02;70.28
6393;BME280;3229;42.674;23.282;2022-08-04T04:12:08;94838.53;;;21.10;70.23
6393;BME280;3229;42.674;23.282;2022-08-04T04:15:00;94839.94;;;21.13;70.08
6393;BME280;3229;42.674;23.282;2022-08-04T04:18:04;94843.13;;;21.15;70.38
6393;BME280;3229;42.674;23.282;2022-08-04T04:21:04;94836.94;;;21.16;70.20
6393;BME280;3229;42.674;23.282;2022-08-04T04:23:53;94844.75;;;21.22;69.90
6393;BME280;3229;42.674;23.282;2022-08-04T04:26:48;94833.34;;;21.17;70.02
6393;BME280;3229;42.674;23.282;2022-08-04T04:29:29;94839.53;;;21.22;70.02
6393;BME280;3229;42.674;23.282;2022-08-04T04:32:17;94849.56;;;21.25;70.39
6393;BME280;3229;42.674;23.282;2022-08-04T04:34:55;94845.56;;;21.29;70.32
6393;BME280;3229;42.674;23.282;2022-08-04T04:37:40;94848.16;;;21.29;70.15
6393;BME280;3229;42.674;23.282;2022-08-04T04:40:21;94848.59;;;21.33;70.12
6393;BME280;3229;42.674;23.282;2022-08-04T04:43:26;94840.78;;;21.33;69.88
6393;BME280;3229;42.674;23.282;2022-08-04T04:46:01;94823.94;;;21.29;69.91
6393;BME280;3229;42.674;23.282;2022-08-04T04:48:37;94854.97;;;21.44;69.77
6393;BME280;3229;42.674;23.282;2022-08-04T04:51:18;94831.78;;;21.42;69.65
6393;BME280;3229;42.674;23.282;2022-08-04T04:54:03;94852.16;;;21.45;69.96
6393;BME280;3229;42.674;23.282;2022-08-04T04:56:38;94831.75;;;21.29;70.13
6393;BME280;3229;42.674;23.282;2022-08-04T04:59:12;94841.97;;;21.37;70.21
6393;BME280;3229;42.674;23.282;2022-08-04T05:01:56;94834.38;;;21.36;69.95
6393;BME280;3229;42.674;23.282;2022-08-04T05:04:57;94856.59;;;21.51;70.16
6393;BME280;3229;42.674;23.282;2022-08-04T05:07:49;94851.34;;;21.58;70.20
6393;BME280;3229;42.674;23.282;2022-08-04T05:10:38;94850.97;;;21.61;69.93
6393;BME280;3229;42.674;23.282;2022-08-04T05:13:33;94841.97;;;21.57;70.35
6393;BME280;3229;42.674;23.282;2022-08-04T05:16:08;94848.56;;;21.66;69.99
6393;BME280;3229;42.674;23.282;2022-08-04T05:18:38;94859.16;;;21.78;69.81
6393;BME280;3229;42.674;23.282;2022-08-04T05:21:18;94857.38;;;21.72;69.79
6393;BME280;3229;42.674;23.282;2022-08-04T05:23:51;94849.16;;;21.62;70.12
6393;BME280;3229;42.674;23.282;2022-08-04T05:26:25;94863.75;;;21.76;70.14
6393;BME280;3229;42.674;23.282;2022-08-04T05:28:56;94856.56;;;21.71;69.92
6393;BME280;3229;42.674;23.282;2022-08-04T05:31:28;94858.38;;;21.64;70.43
6393;BME280;3229;42.674;23.282;2022-08-04T05:34:00;94861.75;;;21.71;70.35
6393;BME280;3229;42.674;23.282;2022-08-04T05:36:34;94866.78;;;21.73;70.54
6393;BME280;3229;42.674;23.282;2022-08-04T05:39:06;94861.97;;;21.76;70.78
6393;BME280;3229;42.674;23.282;2022-08-04T05:41:38;94864.91;;;22.00;71.04
6393;BME280;3229;42.674;23.282;2022-08-04T05:44:07;94865.72;;;22.07;70.70
6393;BME280;3229;42.674;23.282;2022-08-04T05:46:36;94860.69;;;22.19;70.94
6393;BME280;3229;42.674;23.282;2022-08-04T05:49:03;94861.25;;;22.27;69.99
6393;BME280;3229;42.674;23.282;2022-08-04T05:51:32;94861.69;;;22.24;69.52
6393;BME280;3229;42.674;23.282;2022-08-04T05:54:00;94867.81;;;22.43;69.50
6393;BME280;3229;42.674;23.282;2022-08-04T05:56:29;94868.78;;;22.56;69.11
6393;BME280;3229;42.674;23.282;2022-08-04T05:59:01;94862.69;;;22.68;68.97
6393;BME280;3229;42.674;23.282;2022-08-04T06:01:33;94865.31;;;22.68;68.21
6393;BME280;3229;42.674;23.282;2022-08-04T06:04:01;94872.75;;;22.58;68.28
6393;BME280;3229;42.674;23.282;2022-08-04T06:06:29;94848.06;;;22.22;68.59
6393;BME280;3229;42.674;23.282;2022-08-04T06:08:57;94874.50;;;22.26;69.45
6393;BME280;3229;42.674;23.282;2022-08-04T06:11:26;94873.66;;;22.39;68.97
6393;BME280;3229;42.674;23.282;2022-08-04T06:13:56;94875.19;;;22.53;68.73
6393;BME280;3229;42.674;23.282;2022-08-04T06:16:31;94859.56;;;22.53;68.31
6393;BME280;3229;42.674;23.282;2022-08-04T06:19:03;94875.19;;;22.60;68.63
6393;BME280;3229;42.674;23.282;2022-08-04T06:21:32;94881.75;;;22.62;68.21
6393;BME280;3229;42.674;23.282;2022-08-04T06:24:01;94872.41;;;22.54;68.72
6393;BME280;3229;42.674;23.282;2022-08-04T06:26:32;94877.56;;;22.61;68.58
6393;BME280;3229;42.674;23.282;2022-08-04T06:29:02;94863.84;;;22.34;68.69
6393;BME280;3229;42.674;23.282;2022-08-04T06:31:32;94882.66;;;22.36;69.33
6393;BME280;3229;42.674;23.282;2022-08-04T06:34:13;94817.22;;;22.06;69.19
6393;BME280;3229;42.674;23.282;2022-08-04T06:36:40;94881.59;;;22.57;68.92
6393;BME280;3229;42.674;23.282;2022-08-04T06:39:09;94873.94;;;22.69;68.66
6393;BME280;3229;42.674;23.282;2022-08-04T06:41:37;94880.16;;;22.68;68.37
6393;BME280;3229;42.674;23.282;2022-08-04T06:44:07;94849.34;;;22.51;68.95
6393;BME280;3229;42.674;23.282;2022-08-04T06:46:36;94878.69;;;22.78;68.47
6393;BME280;3229;42.674;23.282;2022-08-04T06:49:04;94869.50;;;22.76;67.84
6393;BME280;3229;42.674;23.282;2022-08-04T06:51:32;94885.25;;;22.94;67.72
6393;BME280;3229;42.674;23.282;2022-08-04T06:54:00;94878.00;;;23.03;67.89
6393;BME280;3229;42.674;23.282;2022-08-04T06:56:29;94824.94;;;22.77;67.58
6393;BME280;3229;42.674;23.282;2022-08-04T06:58:58;94867.22;;;23.24;68.01
6393;BME280;3229;42.674;23.282;2022-08-04T07:01:29;94882.28;;;23.47;67.13
6393;BME280;3229;42.674;23.282;2022-08-04T07:03:57;94875.56;;;23.65;67.12
6393;BME280;3229;42.674;23.282;2022-08-04T07:06:25;94852.84;;;23.65;66.69
6393;BME280;3229;42.674;23.282;2022-08-04T07:08:52;94873.28;;;23.93;65.70
6393;BME280;3229;42.674;23.282;2022-08-04T07:11:21;94876.75;;;23.87;65.18
6393;BME280;3229;42.674;23.282;2022-08-04T07:13:49;94880.47;;;23.98;65.13
6393;BME280;3229;42.674;23.282;2022-08-04T07:16:17;94874.75;;;24.08;64.84
6393;BME280;3229;42.674;23.282;2022-08-04T07:18:47;94861.75;;;24.19;64.35
6393;BME280;3229;42.674;23.282;2022-08-04T07:21:22;94876.59;;;24.44;63.62
6393;BME280;3229;42.674;23.282;2022-08-04T07:23:51;94873.59;;;24.59;64.02
6393;BME280;3229;42.674;23.282;2022-08-04T07:26:18;94872.63;;;24.71;63.71
6393;BME280;3229;42.674;23.282;2022-08-04T07:28:45;94852.91;;;24.87;62.52
6393;BME280;3229;42.674;23.282;2022-08-04T07:31:15;94869.41;;;25.18;60.94
6393;BME280;3229;42.674;23.282;2022-08-04T07:33:43;94865.69;;;25.37;60.53
6393;BME280;3229;42.674;23.282;2022-08-04T07:36:13;94868.88;;;25.51;60.91
6393;BME280;3229;42.674;23.282;2022-08-04T07:38:41;94813.09;;;25.39;59.13
6393;BME280;3229;42.674;23.282;2022-08-04T07:41:09;94863.34;;;25.94;59.31
6393;BME280;3229;42.674;23.282;2022-08-04T07:43:36;94862.09;;;26.09;58.36
6393;BME280;3229;42.674;23.282;2022-08-04T07:46:04;94842.03;;;26.14;57.13
6393;BME280;3229;42.674;23.282;2022-08-04T07:48:31;94864.69;;;26.44;57.83
6393;BME280;3229;42.674;23.282;2022-08-04T07:50:58;94861.88;;;26.62;57.35
6393;BME280;3229;42.674;23.282;2022-08-04T07:53:29;94872.19;;;26.81;56.67
6393;BME280;3229;42.674;23.282;2022-08-04T07:55:57;94868.50;;;26.93;55.31
6393;BME280;3229;42.674;23.282;2022-08-04T07:58:24;94860.78;;;26.87;54.49
6393;BME280;3229;42.674;23.282;2022-08-04T08:00:53;94868.44;;;27.05;54.61
6393;BME280;3229;42.674;23.282;2022-08-04T08:03:20;94862.50;;;27.10;55.30
6393;BME280;3229;42.674;23.282;2022-08-04T08:05:47;94863.88;;;27.12;55.03
6393;BME280;3229;42.674;23.282;2022-08-04T08:08:16;94860.63;;;27.22;53.96
6393;BME280;3229;42.674;23.282;2022-08-04T08:10:47;94867.41;;;27.35;54.24
6393;BME280;3229;42.674;23.282;2022-08-04T08:13:14;94868.13;;;27.47;53.29
6393;BME280;3229;42.674;23.282;2022-08-04T08:15:44;94868.28;;;27.57;52.95
6393;BME280;3229;42.674;23.282;2022-08-04T08:18:14;94865.19;;;27.60;53.27
6393;BME280;3229;42.674;23.282;2022-08-04T08:20:44;94855.00;;;27.64;52.80
6393;BME280;3229;42.674;23.282;2022-08-04T08:23:11;94863.16;;;27.67;52.42
6393;BME280;3229;42.674;23.282;2022-08-04T08:25:39;94858.16;;;27.66;52.96
6393;BME280;3229;42.674;23.282;2022-08-04T08:28:07;94861.59;;;27.83;51.90
6393;BME280;3229;42.674;23.282;2022-08-04T08:30:35;94867.56;;;27.95;51.23
6393;BME280;3229;42.674;23.282;2022-08-04T08:33:05;94863.22;;;28.06;51.21
6393;BME280;3229;42.674;23.282;2022-08-04T08:35:41;94866.22;;;28.15;51.78
6393;BME280;3229;42.674;23.282;2022-08-04T08:38:15;94865.59;;;28.24;51.36
6393;BME280;3229;42.674;23.282;2022-08-04T08:40:49;94870.59;;;28.26;50.78
6393;BME280;3229;42.674;23.282;2022-08-04T08:43:46;94863.03;;;28.30;50.95
6393;BME280;3229;42.674;23.282;2022-08-04T08:46:46;94838.25;;;28.25;50.58
6393;BME280;3229;42.674;23.282;2022-08-04T08:49:37;94867.22;;;28.47;50.50
6393;BME280;3229;42.674;23.282;2022-08-04T08:52:25;94869.16;;;28.57;49.38
6393;BME280;3229;42.674;23.282;2022-08-04T08:55:13;94850.09;;;28.28;48.66
6393;BME280;3229;42.674;23.282;2022-08-04T08:57:54;94805.81;;;27.98;48.73
6393;BME280;3229;42.674;23.282;2022-08-04T09:00:35;94869.31;;;28.45;49.38
6393;BME280;3229;42.674;23.282;2022-08-04T09:03:21;94855.69;;;28.54;49.30
6393;BME280;3229;42.674;23.282;2022-08-04T09:06:07;94864.47;;;28.59;48.33
6393;BME280;3229;42.674;23.282;2022-08-04T09:08:59;94871.63;;;28.64;48.83
6393;BME280;3229;42.674;23.282;2022-08-04T09:12:04;94866.16;;;28.70;49.04
6393;BME280;3229;42.674;23.282;2022-08-04T09:14:53;94840.50;;;28.61;49.26
6393;BME280;3229;42.674;23.282;2022-08-04T09:17:29;94850.97;;;28.78;49.25
6393;BME280;3229;42.674;23.282;2022-08-04T09:20:03;94859.50;;;28.63;49.56
6393;BME280;3229;42.674;23.282;2022-08-04T09:22:38;94858.31;;;28.54;49.58
6393;BME280;3229;42.674;23.282;2022-08-04T09:25:12;94844.41;;;28.58;49.98
6393;BME280;3229;42.674;23.282;2022-08-04T09:27:50;94848.97;;;28.63;50.31
6393;BME280;3229;42.674;23.282;2022-08-04T09:30:19;94841.13;;;28.68;49.86
6393;BME280;3229;42.674;23.282;2022-08-04T09:32:56;94839.66;;;28.77;49.79
6393;BME280;3229;42.674;23.282;2022-08-04T09:35:36;94844.50;;;28.90;49.44
6393;BME280;3229;42.674;23.282;2022-08-04T09:38:13;94843.56;;;29.02;47.98
6393;BME280;3229;42.674;23.282;2022-08-04T09:40:47;94838.13;;;29.08;47.69
6393;BME280;3229;42.674;23.282;2022-08-04T09:43:25;94844.19;;;29.09;47.76
6393;BME280;3229;42.674;23.282;2022-08-04T09:45:59;94851.13;;;29.20;47.69
6393;BME280;3229;42.674;23.282;2022-08-04T09:48:35;94835.34;;;29.20;47.99
6393;BME280;3229;42.674;23.282;2022-08-04T09:51:24;94842.78;;;29.28;47.75
6393;BME280;3229;42.674;23.282;2022-08-04T09:54:01;94842.25;;;29.31;44.35
6393;BME280;3229;42.674;23.282;2022-08-04T09:56:37;94846.78;;;29.36;42.92
6393;BME280;3229;42.674;23.282;2022-08-04T09:59:17;94840.53;;;29.42;42.63
6393;BME280;3229;42.674;23.282;2022-08-04T10:01:50;94836.34;;;29.46;42.15
6393;BME280;3229;42.674;23.282;2022-08-04T10:04:20;94836.09;;;29.53;42.35
6393;BME280;3229;42.674;23.282;2022-08-04T10:09:56;94827.28;;;29.69;43.39
6393;BME280;3229;42.674;23.282;2022-08-04T10:12:34;94822.31;;;29.72;41.95
6393;BME280;3229;42.674;23.282;2022-08-04T10:15:15;94832.16;;;29.87;39.75
6393;BME280;3229;42.674;23.282;2022-08-04T10:17:59;94829.28;;;29.89;39.40
6393;BME280;3229;42.674;23.282;2022-08-04T10:23:30;94824.31;;;29.97;37.04
6393;BME280;3229;42.674;23.282;2022-08-04T10:26:08;94788.34;;;29.81;37.00
6393;BME280;3229;42.674;23.282;2022-08-04T10:28:43;94826.47;;;30.06;37.14
6393;BME280;3229;42.674;23.282;2022-08-04T10:31:16;94824.34;;;30.08;37.10
6393;BME280;3229;42.674;23.282;2022-08-04T10:33:50;94812.72;;;30.04;36.52
6393;BME280;3229;42.674;23.282;2022-08-04T10:36:22;94808.53;;;30.13;37.13
6393;BME280;3229;42.674;23.282;2022-08-04T10:38:55;94807.28;;;30.20;36.89
6393;BME280;3229;42.674;23.282;2022-08-04T10:41:28;94809.97;;;30.31;37.33
6393;BME280;3229;42.674;23.282;2022-08-04T10:44:05;94803.13;;;30.35;37.30
6393;BME280;3229;42.674;23.282;2022-08-04T10:46:43;94800.22;;;30.36;36.74
6393;BME280;3229;42.674;23.282;2022-08-04T10:49:18;94786.25;;;30.41;36.10
6393;BME280;3229;42.674;23.282;2022-08-04T10:51:53;94797.13;;;30.55;35.05
6393;BME280;3229;42.674;23.282;2022-08-04T10:54:25;94807.41;;;30.56;33.98
6393;BME280;3229;42.674;23.282;2022-08-04T10:56:56;94789.44;;;30.48;33.99
6393;BME280;3229;42.674;23.282;2022-08-04T10:59:28;94797.63;;;30.52;34.76
6393;BME280;3229;42.674;23.282;2022-08-04T11:02:09;94801.09;;;30.57;34.93
6393;BME280;3229;42.674;23.282;2022-08-04T11:04:42;94797.38;;;30.58;35.07
6393;BME280;3229;42.674;23.282;2022-08-04T11:07:12;94759.31;;;30.39;34.47
6393;BME280;3229;42.674;23.282;2022-08-04T11:09:42;94763.28;;;30.36;34.50
6393;BME280;3229;42.674;23.282;2022-08-04T11:12:14;94784.47;;;30.62;34.91
6393;BME280;3229;42.674;23.282;2022-08-04T11:14:49;94785.25;;;30.62;35.32
6393;BME280;3229;42.674;23.282;2022-08-04T11:17:21;94791.06;;;30.69;35.35
6393;BME280;3229;42.674;23.282;2022-08-04T11:19:57;94723.44;;;30.38;34.88
6393;BME280;3229;42.674;23.282;2022-08-04T11:22:28;94742.72;;;30.48;35.76
6393;BME280;3229;42.674;23.282;2022-08-04T11:25:04;94759.88;;;30.61;35.57
6393;BME280;3229;42.674;23.282;2022-08-04T11:27:41;94765.72;;;30.68;34.97
6393;BME280;3229;42.674;23.282;2022-08-04T11:30:12;94772.66;;;30.80;34.84
6393;BME280;3229;42.674;23.282;2022-08-04T11:32:44;94776.88;;;30.91;34.84
6393;BME280;3229;42.674;23.282;2022-08-04T11:35:20;94781.34;;;30.90;34.92
6393;BME280;3229;42.674;23.282;2022-08-04T11:37:57;94773.19;;;30.97;33.47
6393;BME280;3229;42.674;23.282;2022-08-04T11:40:36;94768.94;;;30.91;33.94
6393;BME280;3229;42.674;23.282;2022-08-04T11:43:07;94769.75;;;30.96;34.45
6393;BME280;3229;42.674;23.282;2022-08-04T11:45:38;94772.88;;;30.78;34.16
6393;BME280;3229;42.674;23.282;2022-08-04T11:48:10;94763.13;;;30.73;34.88
6393;BME280;3229;42.674;23.282;2022-08-04T11:50:42;94762.06;;;30.85;33.74
6393;BME280;3229;42.674;23.282;2022-08-04T11:53:15;94754.16;;;30.90;33.70
6393;BME280;3229;42.674;23.282;2022-08-04T11:55:44;94759.69;;;31.04;33.74
6393;BME280;3229;42.674;23.282;2022-08-04T11:58:14;94758.91;;;31.08;33.45
6393;BME280;3229;42.674;23.282;2022-08-04T12:00:46;94769.75;;;31.07;33.22
6393;BME280;3229;42.674;23.282;2022-08-04T12:03:23;94762.63;;;31.02;32.41
6393;BME280;3229;42.674;23.282;2022-08-04T12:06:00;94755.22;;;31.04;33.23
6393;BME280;3229;42.674;23.282;2022-08-04T12:08:50;94755.47;;;31.13;33.63
6393;BME280;3229;42.674;23.282;2022-08-04T12:11:25;94751.00;;;31.03;34.31
6393;BME280;3229;42.674;23.282;2022-08-04T12:14:03;94764.47;;;31.07;35.47
6393;BME280;3229;42.674;23.282;2022-08-04T12:16:46;94744.91;;;31.03;34.70
6393;BME280;3229;42.674;23.282;2022-08-04T12:19:20;94769.22;;;31.20;34.52
6393;BME280;3229;42.674;23.282;2022-08-04T12:21:52;94766.06;;;31.18;34.81
6393;BME280;3229;42.674;23.282;2022-08-04T12:24:25;94760.22;;;31.16;34.53
6393;BME280;3229;42.674;23.282;2022-08-04T12:26:57;94761.56;;;31.13;34.13
6393;BME280;3229;42.674;23.282;2022-08-04T12:29:26;94766.31;;;31.11;34.05
6393;BME280;3229;42.674;23.282;2022-08-04T12:32:03;94761.81;;;31.17;33.86
6393;BME280;3229;42.674;23.282;2022-08-04T12:34:36;94777.69;;;31.02;34.53
6393;BME280;3229;42.674;23.282;2022-08-04T12:37:09;94772.63;;;31.00;34.35
6393;BME280;3229;42.674;23.282;2022-08-04T12:39:44;94761.28;;;30.99;34.43
6393;BME280;3229;42.674;23.282;2022-08-04T12:42:18;94760.50;;;31.04;34.43
6393;BME280;3229;42.674;23.282;2022-08-04T12:44:48;94743.06;;;30.78;35.02
6393;BME280;3229;42.674;23.282;2022-08-04T12:47:22;94756.25;;;30.72;34.92
6393;BME280;3229;42.674;23.282;2022-08-04T12:49:50;94740.09;;;30.59;35.21
6393;BME280;3229;42.674;23.282;2022-08-04T12:52:19;94748.31;;;30.67;35.41
6393;BME280;3229;42.674;23.282;2022-08-04T12:54:53;94741.44;;;30.66;35.47
6393;BME280;3229;42.674;23.282;2022-08-04T12:57:22;94748.34;;;30.78;34.96
6393;BME280;3229;42.674;23.282;2022-08-04T12:59:50;94745.19;;;30.76;35.00
6393;BME280;3229;42.674;23.282;2022-08-04T13:02:23;94738.81;;;30.71;35.70
6393;BME280;3229;42.674;23.282;2022-08-04T13:04:52;94740.91;;;30.64;34.98
6393;BME280;3229;42.674;23.282;2022-08-04T13:07:22;94750.19;;;30.77;35.49
6393;BME280;3229;42.674;23.282;2022-08-04T13:09:51;94739.03;;;30.70;34.63
6393;BME280;3229;42.674;23.282;2022-08-04T13:12:20;94748.34;;;30.72;34.96
6393;BME280;3229;42.674;23.282;2022-08-04T13:14:49;94744.09;;;30.71;34.28
6393;BME280;3229;42.674;23.282;2022-08-04T13:17:17;94741.19;;;30.73;34.59
6393;BME280;3229;42.674;23.282;2022-08-04T13:19:46;94675.13;;;30.32;34.53
6393;BME280;3229;42.674;23.282;2022-08-04T13:22:22;94737.19;;;30.60;33.83
6393;BME280;3229;42.674;23.282;2022-08-04T13:24:52;94738.00;;;30.71;33.90
6393;BME280;3229;42.674;23.282;2022-08-04T13:27:20;94734.06;;;30.73;33.84
6393;BME280;3229;42.674;23.282;2022-08-04T13:29:49;94732.75;;;30.76;33.40
6393;BME280;3229;42.674;23.282;2022-08-04T13:32:18;94733.53;;;30.77;33.85
6393;BME280;3229;42.674;23.282;2022-08-04T13:34:50;94728.75;;;30.63;34.09
6393;BME280;3229;42.674;23.282;2022-08-04T13:37:19;94731.91;;;30.65;34.44
6393;BME280;3229;42.674;23.282;2022-08-04T13:39:48;94702.31;;;30.48;33.96
6393;BME280;3229;42.674;23.282;2022-08-04T13:42:18;94719.50;;;30.61;33.88
6393;BME280;3229;42.674;23.282;2022-08-04T13:44:48;94697.59;;;30.50;33.69
6393;BME280;3229;42.674;23.282;2022-08-04T13:47:20;94696.81;;;30.60;33.60
6393;BME280;3229;42.674;23.282;2022-08-04T13:50:13;94714.56;;;30.75;34.07
6393;BME280;3229;42.674;23.282;2022-08-04T13:52:42;94710.31;;;30.73;34.21
6393;BME280;3229;42.674;23.282;2022-08-04T13:55:18;94715.34;;;30.80;34.05
6393;BME280;3229;42.674;23.282;2022-08-04T13:57:49;94716.63;;;30.67;34.25
6393;BME280;3229;42.674;23.282;2022-08-04T14:00:18;94712.94;;;30.73;33.76
6393;BME280;3229;42.674;23.282;2022-08-04T14:02:49;94719.81;;;30.80;33.40
6393;BME280;3229;42.674;23.282;2022-08-04T14:05:24;94713.47;;;30.81;32.84
6393;BME280;3229;42.674;23.282;2022-08-04T14:07:54;94719.56;;;30.81;33.53
6393;BME280;3229;42.674;23.282;2022-08-04T14:10:23;94706.34;;;30.81;33.81
6393;BME280;3229;42.674;23.282;2022-08-04T14:12:52;94693.41;;;30.80;33.13
6393;BME280;3229;42.674;23.282;2022-08-04T14:15:38;94700.56;;;30.79;33.76
6393;BME280;3229;42.674;23.282;2022-08-04T14:18:20;94690.50;;;30.81;33.86